createdAt,value
2018-06-11T00:01:31.111Z,17.00
2018-06-11T00:03:59.422Z,17.00
2018-06-11T00:06:27.685Z,16.90
2018-06-11T00:08:56.007Z,16.90
2018-06-11T00:11:24.285Z,16.80
2018-06-11T00:13:52.565Z,16.80
2018-06-11T00:16:20.849Z,16.80
2018-06-11T00:21:17.154Z,16.70
2018-06-11T00:23:45.406Z,16.60
2018-06-11T00:26:13.725Z,16.50
2018-06-11T00:28:42.003Z,16.50
2018-06-11T00:31:10.282Z,16.40
2018-06-11T00:33:38.554Z,16.40
2018-06-11T00:36:07.653Z,16.30
2018-06-11T00:38:35.906Z,16.30
2018-06-11T00:41:04.189Z,16.30
2018-06-11T00:43:32.458Z,16.30
2018-06-11T00:46:00.750Z,16.40
2018-06-11T00:48:29.017Z,16.40
2018-06-11T00:50:57.285Z,16.40
2018-06-11T00:53:25.561Z,16.40
2018-06-11T00:56:05.337Z,16.50
2018-06-11T00:58:33.638Z,16.40
2018-06-11T01:01:01.946Z,16.40
2018-06-11T01:03:30.417Z,16.40
2018-06-11T01:05:58.742Z,16.40
2018-06-11T01:08:27.027Z,16.40
2018-06-11T01:10:55.315Z,16.30
2018-06-11T01:13:23.615Z,16.30
2018-06-11T01:15:51.938Z,16.30
2018-06-11T01:18:20.214Z,16.20
2018-06-11T01:20:48.962Z,16.20
2018-06-11T01:23:17.256Z,16.10
2018-06-11T01:25:45.540Z,16.10
2018-06-11T01:28:13.818Z,16.10
2018-06-11T01:30:42.109Z,16.00
2018-06-11T01:33:10.394Z,16.00
2018-06-11T01:35:38.677Z,16.00
2018-06-11T01:38:07.009Z,16.00
2018-06-11T01:40:35.277Z,15.90
2018-06-11T01:43:03.693Z,15.90
2018-06-11T01:45:31.974Z,15.80
2018-06-11T01:48:00.266Z,15.80
2018-06-11T01:50:28.574Z,15.80
2018-06-11T01:52:56.878Z,15.80
2018-06-11T01:55:25.152Z,15.80
2018-06-11T01:57:53.458Z,15.90
2018-06-11T02:00:21.751Z,15.90
2018-06-11T02:02:50.310Z,15.90
2018-06-11T02:05:18.594Z,15.90
2018-06-11T02:07:46.902Z,15.90
2018-06-11T02:10:16.189Z,15.90
2018-06-11T02:12:44.498Z,16.00
2018-06-11T02:15:12.779Z,16.00
2018-06-11T02:17:41.099Z,16.00
2018-06-11T02:20:09.428Z,16.00
2018-06-11T02:22:37.780Z,16.00
2018-06-11T02:25:06.059Z,16.00
2018-06-11T02:27:34.364Z,16.00
2018-06-11T02:30:02.672Z,16.00
2018-06-11T02:32:31.003Z,16.10
2018-06-11T02:34:59.326Z,16.10
2018-06-11T02:37:27.647Z,16.10
2018-06-11T02:39:55.935Z,16.10
2018-06-11T02:42:24.241Z,16.10
2018-06-11T02:44:52.527Z,16.20
2018-06-11T02:47:20.830Z,16.20
2018-06-11T02:49:49.122Z,16.20
2018-06-11T02:52:17.422Z,16.20
2018-06-11T02:54:45.714Z,16.20
2018-06-11T02:57:14.005Z,16.20
2018-06-11T02:59:42.294Z,16.20
2018-06-11T03:02:10.623Z,16.30
2018-06-11T03:04:38.905Z,16.30
2018-06-11T03:07:07.224Z,16.30
2018-06-11T03:09:35.521Z,16.30
2018-06-11T03:12:03.830Z,16.30
2018-06-11T03:14:32.149Z,16.30
2018-06-11T03:17:00.436Z,16.30
2018-06-11T03:19:28.739Z,16.40
2018-06-11T03:21:57.022Z,16.30
2018-06-11T03:24:25.321Z,16.40
2018-06-11T03:26:53.631Z,16.40
2018-06-11T03:29:21.934Z,16.40
2018-06-11T03:31:50.236Z,16.40
2018-06-11T03:34:18.564Z,16.40
2018-06-11T03:36:46.868Z,16.40
2018-06-11T03:41:43.470Z,16.40
2018-06-11T03:44:11.770Z,16.40
2018-06-11T03:46:40.077Z,16.50
2018-06-11T03:49:08.909Z,16.50
2018-06-11T03:51:37.193Z,16.50
2018-06-11T03:54:05.566Z,16.50
2018-06-11T03:56:34.154Z,16.50
2018-06-11T03:59:02.685Z,16.60
2018-06-11T04:01:30.990Z,16.60
2018-06-11T04:03:59.318Z,16.60
2018-06-11T04:06:27.619Z,16.70
2018-06-11T04:08:55.983Z,16.60
2018-06-11T04:11:24.270Z,16.80
2018-06-11T04:13:52.582Z,16.80
2018-06-11T04:16:21.218Z,16.80
2018-06-11T04:18:49.518Z,16.80
2018-06-11T04:21:18.144Z,16.90
2018-06-11T04:23:46.557Z,16.80
2018-06-11T04:26:14.873Z,16.80
2018-06-11T04:28:43.147Z,16.80
2018-06-11T04:31:11.442Z,16.80
2018-06-11T04:33:39.744Z,16.90
2018-06-11T04:38:36.198Z,16.90
2018-06-11T04:41:04.507Z,16.90
2018-06-11T04:43:32.846Z,16.90
2018-06-11T04:46:01.123Z,16.90
2018-06-11T04:48:30.483Z,16.90
2018-06-11T04:50:58.776Z,17.00
2018-06-11T04:53:27.039Z,17.00
2018-06-11T04:55:55.361Z,17.00
2018-06-11T04:58:23.642Z,17.00
2018-06-11T05:00:52.127Z,17.10
2018-06-11T05:03:20.427Z,17.10
2018-06-11T05:05:48.738Z,17.10
2018-06-11T05:08:17.007Z,17.20
2018-06-11T05:10:45.641Z,17.40
2018-06-11T05:13:13.930Z,17.50
2018-06-11T05:15:42.309Z,17.60
2018-06-11T05:18:10.570Z,17.80
2018-06-11T05:20:38.925Z,17.90
2018-06-11T05:23:07.199Z,18.00
2018-06-11T05:25:35.494Z,18.00
2018-06-11T05:28:04.342Z,18.00
2018-06-11T05:30:32.648Z,18.10
2018-06-11T05:33:00.937Z,18.10
2018-06-11T05:37:57.292Z,18.00
2018-06-11T05:40:25.594Z,18.00
2018-06-11T05:42:53.891Z,17.90
2018-06-11T05:47:50.223Z,17.90
2018-06-11T05:55:14.587Z,18.00
2018-06-11T05:57:42.881Z,18.00
2018-06-11T06:05:07.290Z,18.00
2018-06-11T06:07:35.647Z,17.90
2018-06-11T06:10:03.947Z,17.90
2018-06-11T06:15:00.315Z,18.00
2018-06-11T06:19:57.077Z,18.30
2018-06-11T06:22:25.415Z,18.30
2018-06-11T06:24:53.738Z,18.40
2018-06-11T06:27:22.041Z,18.40
2018-06-11T06:29:50.329Z,18.50
2018-06-11T06:32:18.638Z,18.60
2018-06-11T06:34:46.975Z,18.80
2018-06-11T06:37:15.364Z,18.90
2018-06-11T06:39:43.680Z,19.00
2018-06-11T06:42:11.990Z,19.00
2018-06-11T06:44:40.306Z,18.90
2018-06-11T06:47:08.630Z,18.80
2018-06-11T06:49:36.922Z,18.80
2018-06-11T06:52:05.239Z,18.80
2018-06-11T06:54:33.529Z,18.80
2018-06-11T06:57:01.842Z,18.90
2018-06-11T06:59:30.150Z,19.10
2018-06-11T07:01:58.458Z,19.20
2018-06-11T07:04:26.794Z,19.20
2018-06-11T07:06:55.080Z,19.20
2018-06-11T07:09:23.378Z,19.40
2018-06-11T07:11:51.686Z,19.40
2018-06-11T07:14:20.090Z,19.40
2018-06-11T07:16:48.435Z,19.40
2018-06-11T07:19:16.742Z,19.70
2018-06-11T07:21:45.042Z,19.90
2018-06-11T07:24:13.386Z,20.10
2018-06-11T07:26:41.691Z,20.30
2018-06-11T07:29:09.997Z,20.50
2018-06-11T07:31:38.274Z,20.70
2018-06-11T07:34:06.622Z,21.20
2018-06-11T07:36:34.920Z,21.60
2018-06-11T07:39:03.266Z,21.80
2018-06-11T07:41:31.553Z,22.10
2018-06-11T07:43:59.858Z,22.10
2018-06-11T07:46:28.140Z,22.20
2018-06-11T07:48:56.434Z,22.30
2018-06-11T07:51:24.742Z,22.40
2018-06-11T07:53:53.021Z,22.10
2018-06-11T07:56:21.329Z,21.80
2018-06-11T07:58:49.653Z,21.70
2018-06-11T08:01:17.984Z,21.80
2018-06-11T08:03:46.270Z,21.80
2018-06-11T08:06:14.602Z,21.70
2018-06-11T08:08:42.854Z,21.40
2018-06-11T08:11:11.131Z,21.60
2018-06-11T08:13:39.402Z,21.70
2018-06-11T08:16:07.718Z,21.60
2018-06-11T08:18:36.026Z,21.40
2018-06-11T08:21:04.295Z,21.30
2018-06-11T08:23:32.550Z,21.30
2018-06-11T08:26:00.834Z,21.50
2018-06-11T08:28:29.122Z,21.50
2018-06-11T08:30:57.410Z,21.50
2018-06-11T08:33:25.694Z,21.80
2018-06-11T08:35:53.983Z,22.00
2018-06-11T08:38:22.241Z,22.20
2018-06-11T08:40:50.523Z,22.60
2018-06-11T08:43:18.860Z,22.90
2018-06-11T08:45:47.110Z,23.10
2018-06-11T08:48:15.377Z,22.80
2018-06-11T08:50:43.647Z,22.40
2018-06-11T08:53:11.947Z,22.20
2018-06-11T08:55:40.217Z,22.40
2018-06-11T08:58:08.507Z,22.20
2018-06-11T09:00:36.772Z,22.40
2018-06-11T09:05:33.137Z,23.00
2018-06-11T09:08:01.434Z,23.50
2018-06-11T09:10:29.687Z,23.50
2018-06-11T09:12:57.986Z,23.40
2018-06-11T09:15:26.254Z,23.40
2018-06-11T09:17:54.605Z,23.20
2018-06-11T09:20:22.845Z,23.10
2018-06-11T09:22:51.131Z,22.80
2018-06-11T09:25:19.403Z,22.70
2018-06-11T09:27:47.682Z,22.90
2018-06-11T09:30:15.955Z,23.20
2018-06-11T09:32:44.253Z,23.90
2018-06-11T09:35:12.506Z,24.40
2018-06-11T09:37:40.798Z,24.80
2018-06-11T09:42:37.094Z,24.60
2018-06-11T09:45:05.401Z,24.80
2018-06-11T09:47:33.704Z,24.90
2018-06-11T09:50:01.975Z,25.00
2018-06-11T09:52:30.274Z,25.30
2018-06-11T09:54:58.554Z,25.40
2018-06-11T09:57:26.843Z,25.30
2018-06-11T09:59:55.093Z,25.40
2018-06-11T10:02:23.394Z,25.40
2018-06-11T10:04:51.669Z,25.60
2018-06-11T10:07:20.002Z,25.80
2018-06-11T10:09:48.295Z,25.90
2018-06-11T10:12:16.669Z,25.60
2018-06-11T10:14:44.910Z,25.20
2018-06-11T10:17:13.205Z,24.90
2018-06-11T10:19:41.492Z,24.50
2018-06-11T10:24:37.841Z,24.40
2018-06-11T10:27:06.142Z,24.60
2018-06-11T10:29:34.461Z,24.80
2018-06-11T10:32:03.047Z,24.90
2018-06-11T10:36:59.404Z,25.10
2018-06-11T10:39:27.693Z,25.00
2018-06-11T10:41:56.013Z,25.40
2018-06-11T10:44:24.305Z,25.40
2018-06-11T10:46:52.586Z,25.00
2018-06-11T10:49:20.923Z,24.40
2018-06-11T10:51:49.211Z,24.30
2018-06-11T10:54:17.517Z,24.90
2018-06-11T10:56:45.789Z,24.90
2018-06-11T10:59:14.111Z,24.30
2018-06-11T11:01:42.385Z,24.30
2018-06-11T11:04:10.689Z,23.70
2018-06-11T11:06:38.994Z,23.60
2018-06-11T11:09:07.307Z,23.30
2018-06-11T11:11:35.579Z,23.00
2018-06-11T11:14:03.865Z,23.00
2018-06-11T11:19:00.165Z,23.40
2018-06-11T11:21:28.430Z,24.10
2018-06-11T11:23:56.766Z,24.60
2018-06-11T11:26:25.047Z,24.90
2018-06-11T11:28:53.334Z,24.70
2018-06-11T11:31:21.594Z,24.50
2018-06-11T11:33:49.931Z,24.10
2018-06-11T11:36:18.231Z,23.80
2018-06-11T11:38:46.519Z,24.10
2018-06-11T11:41:14.781Z,24.40
2018-06-11T11:43:43.101Z,24.90
2018-06-11T11:46:11.402Z,25.00
2018-06-11T11:51:07.841Z,24.60
2018-06-11T11:53:36.089Z,24.80
2018-06-11T11:56:04.338Z,24.90
2018-06-11T11:58:32.625Z,24.90
2018-06-11T12:01:00.890Z,24.90
2018-06-11T12:03:29.152Z,24.90
2018-06-11T12:05:57.434Z,25.10
2018-06-11T12:08:25.697Z,25.40
2018-06-11T12:10:53.998Z,25.30
2018-06-11T12:13:22.265Z,25.10
2018-06-11T12:18:18.603Z,25.10
2018-06-11T12:20:46.882Z,25.20
2018-06-11T12:23:15.145Z,25.40
2018-06-11T12:25:43.466Z,25.40
2018-06-11T12:28:11.782Z,25.40
2018-06-11T12:30:40.081Z,25.30
2018-06-11T12:33:08.378Z,25.30
2018-06-11T12:38:04.697Z,25.30
2018-06-11T12:40:33.019Z,25.40
2018-06-11T12:43:01.329Z,25.20
2018-06-11T12:45:29.626Z,25.20
2018-06-11T12:47:57.902Z,25.40
2018-06-11T12:50:26.195Z,25.40
2018-06-11T12:52:54.523Z,25.30
2018-06-11T12:55:22.878Z,25.20
2018-06-11T13:00:19.193Z,25.20
2018-06-11T13:02:47.490Z,25.20
2018-06-11T13:05:15.797Z,25.40
2018-06-11T13:07:44.309Z,25.60
2018-06-11T13:10:12.661Z,26.00
2018-06-11T13:12:40.942Z,26.10
2018-06-11T13:15:09.245Z,26.20
2018-06-11T13:17:37.534Z,26.00
2018-06-11T13:20:05.957Z,26.00
2018-06-11T13:22:34.244Z,25.90
2018-06-11T13:25:02.518Z,25.90
2018-06-11T13:27:30.848Z,25.90
2018-06-11T13:29:59.126Z,25.50
2018-06-11T13:32:27.438Z,25.50
2018-06-11T13:34:55.726Z,25.70
2018-06-11T13:37:24.031Z,25.80
2018-06-11T13:39:52.320Z,25.80
2018-06-11T13:42:20.627Z,25.90
2018-06-11T13:44:48.902Z,25.90
2018-06-11T13:47:17.279Z,26.00
2018-06-11T13:49:45.553Z,26.10
2018-06-11T13:52:13.872Z,26.20
2018-06-11T13:54:42.133Z,26.10
2018-06-11T13:57:10.462Z,26.00
2018-06-11T13:59:38.745Z,26.10
2018-06-11T14:02:07.058Z,26.00
2018-06-11T14:04:35.334Z,25.90
2018-06-11T14:07:03.655Z,26.00
2018-06-11T14:09:31.982Z,26.10
2018-06-11T14:12:00.300Z,25.90
2018-06-11T14:14:28.614Z,25.90
2018-06-11T14:16:56.918Z,25.90
2018-06-11T14:19:25.198Z,25.90
2018-06-11T14:21:53.541Z,25.90
2018-06-11T14:24:21.798Z,26.00
2018-06-11T14:26:50.104Z,26.10
2018-06-11T14:29:18.378Z,26.20
2018-06-11T14:31:46.687Z,26.30
2018-06-11T14:34:15.126Z,26.40
2018-06-11T14:36:43.447Z,26.40
2018-06-11T14:39:11.731Z,26.50
2018-06-11T14:41:40.092Z,26.50
2018-06-11T14:44:08.384Z,26.60
2018-06-11T14:46:36.697Z,26.60
2018-06-11T14:49:05.033Z,26.20
2018-06-11T14:51:33.313Z,26.30
2018-06-11T14:54:01.614Z,26.20
2018-06-11T15:01:26.166Z,26.60
2018-06-11T15:03:54.422Z,26.60
2018-06-11T15:06:22.694Z,26.70
2018-06-11T15:08:51.053Z,26.50
2018-06-11T15:13:47.522Z,26.20
2018-06-11T15:23:40.201Z,26.50
2018-06-11T15:31:05.885Z,26.20
2018-06-11T15:33:34.187Z,26.30
2018-06-11T15:36:02.527Z,26.30
2018-06-11T15:38:33.133Z,26.30
2018-06-11T15:41:01.554Z,26.30
2018-06-11T15:43:29.901Z,26.40
2018-06-11T15:45:58.452Z,26.20
2018-06-11T15:48:26.896Z,26.00
2018-06-11T15:50:55.294Z,26.00
2018-06-11T16:00:47.866Z,25.90
2018-06-11T16:05:44.836Z,25.90
2018-06-11T16:08:13.172Z,25.70
2018-06-11T16:10:41.480Z,25.80
2018-06-11T16:13:14.541Z,25.60
2018-06-11T16:15:42.980Z,25.20
2018-06-11T16:25:35.502Z,25.30
2018-06-11T16:30:31.851Z,25.20
2018-06-11T16:33:00.146Z,25.10
2018-06-11T16:37:56.480Z,24.80
2018-06-11T16:40:24.762Z,24.70
2018-06-11T16:45:21.137Z,24.60
2018-06-11T16:47:49.443Z,24.50
2018-06-11T16:52:45.775Z,24.40
2018-06-11T16:55:14.089Z,24.40
2018-06-11T16:57:42.429Z,24.20
2018-06-11T17:05:06.803Z,23.70
2018-06-11T17:07:35.114Z,23.70
2018-06-11T17:10:03.381Z,23.70
2018-06-11T17:12:31.686Z,23.60
2018-06-11T17:19:56.105Z,23.30
2018-06-11T17:24:52.464Z,23.10
2018-06-11T17:29:48.782Z,23.00
2018-06-11T17:34:45.193Z,23.00
2018-06-11T17:39:41.526Z,23.10
2018-06-11T17:44:37.872Z,23.50
2018-06-11T17:47:06.146Z,23.70
2018-06-11T17:49:34.445Z,23.90
2018-06-11T17:52:02.774Z,24.10
2018-06-11T17:56:59.123Z,24.10
2018-06-11T17:59:27.444Z,24.10
2018-06-11T18:01:55.710Z,24.20
2018-06-11T18:04:24.013Z,24.10
2018-06-11T18:06:52.269Z,24.00
2018-06-11T18:09:20.558Z,24.00
2018-06-11T18:11:48.807Z,23.90
2018-06-11T18:19:13.175Z,23.60
2018-06-11T18:21:41.434Z,23.40
2018-06-11T18:24:09.710Z,23.00
2018-06-11T18:26:38.006Z,23.10
2018-06-11T18:29:06.321Z,22.40
2018-06-11T18:31:34.597Z,22.20
2018-06-11T18:34:02.862Z,22.00
2018-06-11T18:36:31.135Z,21.90
2018-06-11T18:41:27.438Z,21.80
2018-06-11T18:43:55.709Z,21.70
2018-06-11T18:46:23.994Z,21.60
2018-06-11T18:48:52.258Z,21.50
2018-06-11T18:51:20.541Z,21.30
2018-06-11T18:53:48.857Z,21.10
2018-06-11T18:56:17.796Z,20.90
2018-06-11T18:58:46.082Z,20.80
2018-06-11T19:01:14.508Z,20.70
2018-06-11T19:03:43.106Z,20.50
2018-06-11T19:06:11.602Z,20.40
2018-06-11T19:08:39.869Z,20.30
2018-06-11T19:11:08.222Z,20.10
2018-06-11T19:13:36.497Z,19.90
2018-06-11T19:16:04.870Z,19.70
2018-06-11T19:18:33.162Z,19.50
2018-06-11T19:21:01.570Z,19.40
2018-06-11T19:23:29.832Z,19.20
2018-06-11T19:25:58.159Z,19.00
2018-06-11T19:28:26.691Z,18.90
2018-06-11T19:30:55.056Z,18.70
2018-06-11T19:33:23.339Z,18.50
2018-06-11T19:35:51.687Z,18.40
2018-06-11T19:38:20.068Z,18.20
2018-06-11T19:40:48.628Z,18.10
2018-06-11T19:43:18.117Z,18.00
2018-06-11T19:45:47.572Z,17.90
2018-06-11T19:48:16.832Z,17.80
2018-06-11T19:50:46.131Z,17.80
2018-06-11T19:53:15.432Z,17.70
2018-06-11T19:55:44.192Z,17.70
2018-06-11T19:58:13.299Z,17.60
2018-06-11T20:00:42.769Z,17.40
2018-06-11T20:03:11.228Z,17.30
2018-06-11T20:05:39.675Z,17.10
2018-06-11T20:08:08.115Z,17.10
2018-06-11T20:10:36.437Z,17.10
2018-06-11T20:13:04.789Z,17.00
2018-06-11T20:15:33.110Z,17.00
2018-06-11T20:18:01.435Z,17.00
2018-06-11T20:20:29.764Z,16.90
2018-06-11T20:22:58.095Z,16.80
2018-06-11T20:25:26.488Z,16.70
2018-06-11T20:27:54.804Z,16.60
2018-06-11T20:30:23.486Z,16.60
2018-06-11T20:32:51.810Z,16.50
2018-06-11T20:37:48.247Z,16.40
2018-06-11T20:40:16.554Z,16.40
2018-06-11T20:45:12.872Z,16.20
2018-06-11T20:47:41.161Z,16.20
2018-06-11T20:50:09.418Z,16.20
2018-06-11T20:52:37.700Z,16.10
2018-06-11T20:55:06.038Z,16.00
2018-06-11T20:57:34.320Z,15.80
2018-06-11T21:00:02.607Z,15.80
2018-06-11T21:02:31.053Z,15.70
2018-06-11T21:04:59.406Z,15.60
2018-06-11T21:07:27.699Z,15.50
2018-06-11T21:09:55.977Z,15.50
2018-06-11T21:12:24.285Z,15.40
2018-06-11T21:14:52.677Z,15.30
2018-06-11T21:17:21.125Z,15.20
2018-06-11T21:19:49.455Z,15.10
2018-06-11T21:22:17.828Z,15.00
2018-06-11T21:24:46.184Z,15.00
2018-06-11T21:27:14.511Z,15.00
2018-06-11T21:29:42.953Z,14.90
2018-06-11T21:32:11.222Z,14.90
2018-06-11T21:34:39.526Z,14.80
2018-06-11T21:37:07.836Z,14.80
2018-06-11T21:39:36.122Z,14.80
2018-06-11T21:42:04.398Z,14.70
2018-06-11T21:44:32.743Z,14.70
2018-06-11T21:47:01.131Z,14.60
2018-06-11T21:49:29.593Z,14.60
2018-06-11T21:51:57.964Z,14.50
2018-06-11T21:54:26.315Z,14.40
2018-06-11T21:56:55.790Z,14.40
2018-06-11T21:59:24.177Z,14.30
2018-06-11T22:01:52.465Z,14.20
2018-06-11T22:04:20.767Z,14.20
2018-06-11T22:06:49.030Z,14.20
2018-06-11T22:09:17.306Z,14.00
2018-06-11T22:11:45.570Z,14.00
2018-06-11T22:14:13.842Z,13.90
2018-06-11T22:16:42.100Z,13.80
2018-06-11T22:19:10.366Z,13.80
2018-06-11T22:21:38.621Z,13.70
2018-06-11T22:24:07.022Z,13.60
2018-06-11T22:26:35.276Z,13.50
2018-06-11T22:29:03.550Z,13.40
2018-06-11T22:31:31.815Z,13.30
2018-06-11T22:34:00.249Z,13.20
2018-06-11T22:36:28.506Z,13.20
2018-06-11T22:38:56.863Z,13.10
2018-06-11T22:41:25.086Z,13.10
2018-06-11T22:43:53.339Z,13.10
2018-06-11T22:46:21.614Z,13.10
2018-06-11T22:48:49.865Z,13.20
2018-06-11T22:51:18.161Z,13.20
2018-06-11T22:53:46.414Z,13.20
2018-06-11T22:56:14.699Z,13.20
2018-06-11T22:58:42.966Z,13.30
2018-06-11T23:01:11.246Z,13.30
2018-06-11T23:03:39.551Z,13.30
2018-06-11T23:06:07.855Z,13.20
2018-06-11T23:08:36.128Z,13.20
2018-06-11T23:13:32.478Z,13.20
2018-06-11T23:16:00.785Z,13.10
2018-06-11T23:18:29.099Z,13.10
2018-06-11T23:20:57.385Z,13.00
2018-06-11T23:23:25.653Z,13.10
2018-06-11T23:25:53.954Z,13.10
2018-06-11T23:30:50.289Z,13.10
2018-06-11T23:33:18.589Z,13.10
2018-06-11T23:35:46.883Z,13.10
2018-06-11T23:38:15.158Z,13.10
2018-06-11T23:40:43.451Z,13.10
2018-06-11T23:43:11.722Z,13.10
2018-06-11T23:45:40.058Z,13.10
2018-06-11T23:50:36.348Z,13.10
2018-06-11T23:53:04.597Z,13.10
2018-06-11T23:55:32.863Z,13.00
2018-06-11T23:58:01.201Z,13.00
